createdAt,value
2022-09-10T00:01:24.596Z,92712.19
2022-09-10T00:03:51.370Z,92706.41
2022-09-10T00:06:18.862Z,92704.66
2022-09-10T00:08:46.669Z,92701.09
2022-09-10T00:11:15.085Z,92694.19
2022-09-10T00:13:42.257Z,92699.72
2022-09-10T00:16:12.569Z,92694.94
2022-09-10T00:18:40.255Z,92702.34
2022-09-10T00:21:10.338Z,92700.75
2022-09-10T00:23:37.511Z,92703.66
2022-09-10T00:26:22.356Z,92696.59
2022-09-10T00:28:50.524Z,92699.19
2022-09-10T00:31:18.253Z,92706.03
2022-09-10T00:33:44.938Z,92701.75
2022-09-10T00:36:15.877Z,92697.06
2022-09-10T00:38:42.671Z,92695.25
2022-09-10T00:41:09.301Z,92689.16
2022-09-10T00:44:27.725Z,92687.81
2022-09-10T00:46:56.193Z,92690.13
2022-09-10T00:49:31.918Z,92687.47
2022-09-10T00:52:00.380Z,92679.63
2022-09-10T00:54:29.299Z,92684.53
2022-09-10T00:56:59.367Z,92682.44
2022-09-10T00:59:26.958Z,92677.63
2022-09-10T01:01:55.561Z,92679.47
2022-09-10T01:04:22.623Z,92679.47
2022-09-10T01:11:37.792Z,92668.41
2022-09-10T01:14:26.911Z,92669.50
2022-09-10T01:17:10.914Z,92678.97
2022-09-10T01:20:11.797Z,92680.06
2022-09-10T01:22:52.931Z,92685.91
2022-09-10T01:25:40.476Z,92693.59
2022-09-10T01:28:29.760Z,92698.13
2022-09-10T01:31:04.530Z,92681.19
2022-09-10T01:33:57.287Z,92682.13
2022-09-10T01:36:28.652Z,92687.16
2022-09-10T01:38:56.006Z,92685.38
2022-09-10T01:41:26.735Z,92697.84
2022-09-10T01:43:53.714Z,92691.50
2022-09-10T01:46:34.879Z,92684.94
2022-09-10T01:49:23.076Z,92675.22
2022-09-10T01:52:08.667Z,92681.50
2022-09-10T01:55:01.259Z,92691.44
2022-09-10T01:58:04.244Z,92686.94
2022-09-10T02:00:46.194Z,92687.28
2022-09-10T02:03:17.338Z,92674.03
2022-09-10T02:05:49.363Z,92671.41
2022-09-10T02:08:20.860Z,92672.16
2022-09-10T02:10:49.628Z,92665.81
2022-09-10T02:13:16.130Z,92669.25
2022-09-10T02:15:54.452Z,92670.25
2022-09-10T02:18:26.068Z,92674.75
2022-09-10T02:20:58.541Z,92678.97
2022-09-10T02:23:32.029Z,92675.53
2022-09-10T02:25:58.965Z,92677.69
2022-09-10T02:28:28.250Z,92676.59
2022-09-10T02:30:55.059Z,92675.81
2022-09-10T02:33:21.900Z,92688.25
2022-09-10T02:35:49.732Z,92674.53
2022-09-10T02:38:18.151Z,92673.47
2022-09-10T02:40:48.958Z,92663.41
2022-09-10T02:43:17.330Z,92651.53
2022-09-10T02:45:44.625Z,92653.13
2022-09-10T02:48:11.138Z,92649.19
2022-09-10T02:50:37.786Z,92650.78
2022-09-10T02:53:04.824Z,92651.34
2022-09-10T02:55:31.911Z,92652.19
2022-09-10T02:57:58.467Z,92655.91
2022-09-10T03:00:25.743Z,92651.69
2022-09-10T03:02:56.866Z,92659.09
2022-09-10T03:05:26.642Z,92665.72
2022-09-10T03:07:53.693Z,92668.94
2022-09-10T03:10:20.418Z,92659.44
2022-09-10T03:12:47.947Z,92657.88
2022-09-10T03:15:14.421Z,92662.34
2022-09-10T03:17:41.186Z,92662.94
2022-09-10T03:20:08.159Z,92659.00
2022-09-10T03:22:35.401Z,92662.94
2022-09-10T03:25:01.968Z,92668.47
2022-09-10T03:27:28.430Z,92658.78
2022-09-10T03:29:54.957Z,92663.56
2022-09-10T03:32:23.666Z,92660.69
2022-09-10T03:34:50.251Z,92661.31
2022-09-10T03:37:17.926Z,92660.72
2022-09-10T03:39:44.672Z,92663.06
2022-09-10T03:42:11.222Z,92655.94
2022-09-10T03:44:38.096Z,92661.22
2022-09-10T03:47:05.810Z,92651.25
2022-09-10T03:49:32.722Z,92657.84
2022-09-10T03:51:59.272Z,92658.69
2022-09-10T03:54:25.701Z,92655.56
2022-09-10T03:56:52.169Z,92660.31
2022-09-10T03:59:18.827Z,92659.31
2022-09-10T04:01:46.252Z,92668.06
2022-09-10T04:04:12.826Z,92665.38
2022-09-10T04:06:40.221Z,92666.22
2022-09-10T04:09:06.710Z,92664.69
2022-09-10T04:11:33.722Z,92667.38
2022-09-10T04:14:00.219Z,92670.25
2022-09-10T04:16:27.829Z,92665.50
2022-09-10T04:18:56.112Z,92665.25
2022-09-10T04:21:23.200Z,92667.19
2022-09-10T04:23:54.517Z,92665.00
2022-09-10T04:26:21.501Z,92663.91
2022-09-10T04:28:49.844Z,92664.91
2022-09-10T04:31:17.477Z,92663.44
2022-09-10T04:33:45.220Z,92666.41
2022-09-10T04:36:15.731Z,92668.03
2022-09-10T04:38:43.395Z,92673.34
2022-09-10T04:41:15.407Z,92673.41
2022-09-10T04:43:43.547Z,92673.72
2022-09-10T04:46:10.150Z,92680.63
2022-09-10T04:48:39.635Z,92684.81
2022-09-10T04:51:16.283Z,92677.19
2022-09-10T04:53:46.082Z,92684.13
2022-09-10T04:56:13.030Z,92684.13
2022-09-10T04:58:41.075Z,92682.56
2022-09-10T05:01:08.203Z,92686.31
2022-09-10T05:03:34.755Z,92682.75
2022-09-10T05:06:02.383Z,92679.81
2022-09-10T05:08:29.517Z,92673.97
2022-09-10T05:10:57.870Z,92680.25
2022-09-10T05:13:24.453Z,92677.31
2022-09-10T05:15:50.981Z,92673.66
2022-09-10T05:18:18.110Z,92667.09
2022-09-10T05:20:46.706Z,92670.25
2022-09-10T05:23:13.473Z,92665.31
2022-09-10T05:25:43.644Z,92678.75
2022-09-10T05:28:10.392Z,92672.03
2022-09-10T05:30:37.781Z,92666.81
2022-09-10T05:33:04.418Z,92668.63
2022-09-10T05:35:33.364Z,92679.97
2022-09-10T05:38:03.337Z,92686.06
2022-09-10T05:40:35.502Z,92694.13
2022-09-10T05:43:02.514Z,92688.84
2022-09-10T05:45:29.338Z,92695.13
2022-09-10T05:47:57.223Z,92699.59
2022-09-10T05:50:24.016Z,92699.06
2022-09-10T05:52:52.512Z,92700.59
2022-09-10T05:55:19.074Z,92703.22
2022-09-10T05:57:46.887Z,92700.84
2022-09-10T06:00:16.451Z,92703.28
2022-09-10T06:02:53.130Z,92703.47
2022-09-10T06:05:28.112Z,92704.81
2022-09-10T06:07:57.656Z,92700.78
2022-09-10T06:10:24.524Z,92705.50
2022-09-10T06:12:52.195Z,92709.19
2022-09-10T06:15:21.055Z,92708.75
2022-09-10T06:17:48.612Z,92715.09
2022-09-10T06:20:16.233Z,92719.75
2022-09-10T06:22:44.411Z,92713.91
2022-09-10T06:25:12.554Z,92722.34
2022-09-10T06:27:39.359Z,92723.88
2022-09-10T06:30:06.927Z,92726.53
2022-09-10T06:32:34.546Z,92729.66
2022-09-10T06:35:02.431Z,92726.19
2022-09-10T06:37:29.025Z,92734.38
2022-09-10T06:39:55.568Z,92735.41
2022-09-10T06:42:23.855Z,92729.53
2022-09-10T06:45:06.487Z,92729.72
2022-09-10T06:50:57.097Z,92728.84
2022-09-10T06:53:29.202Z,92735.44
2022-09-10T06:55:56.613Z,92737.53
2022-09-10T06:58:24.691Z,92736.16
2022-09-10T07:00:52.248Z,92733.47
2022-09-10T07:03:21.539Z,92740.28
2022-09-10T07:05:49.241Z,92742.34
2022-09-10T07:08:17.539Z,92741.34
2022-09-10T07:10:47.453Z,92747.06
2022-09-10T07:13:14.605Z,92741.22
2022-09-10T07:15:50.545Z,92748.50
2022-09-10T07:18:17.177Z,92745.25
2022-09-10T07:20:45.039Z,92756.25
2022-09-10T07:23:13.189Z,92746.16
2022-09-10T07:25:41.989Z,92753.59
2022-09-10T07:28:18.082Z,92759.88
2022-09-10T07:30:47.488Z,92761.78
2022-09-10T07:33:15.051Z,92762.34
2022-09-10T07:35:43.243Z,92768.69
2022-09-10T07:38:14.052Z,92763.69
2022-09-10T07:40:42.172Z,92770.09
2022-09-10T07:43:08.903Z,92778.19
2022-09-10T07:45:35.806Z,92769.09
2022-09-10T07:48:04.268Z,92782.34
2022-09-10T07:50:36.073Z,92779.59
2022-09-10T07:53:02.871Z,92781.06
2022-09-10T07:55:30.477Z,92787.97
2022-09-10T07:58:00.248Z,92788.34
2022-09-10T08:00:29.147Z,92797.06
2022-09-10T08:02:58.932Z,92801.84
2022-09-10T08:05:28.764Z,92801.78
2022-09-10T08:07:55.415Z,92795.72
2022-09-10T08:10:24.653Z,92798.13
2022-09-10T08:12:51.963Z,92796.78
2022-09-10T08:15:18.596Z,92801.78
2022-09-10T08:17:47.770Z,92805.00
2022-09-10T08:20:15.579Z,92813.00
2022-09-10T08:22:44.266Z,92807.09
2022-09-10T08:25:12.128Z,92813.78
2022-09-10T08:27:42.044Z,92812.44
2022-09-10T08:30:09.825Z,92809.78
2022-09-10T08:32:37.584Z,92817.34
2022-09-10T08:35:05.840Z,92811.00
2022-09-10T08:37:33.764Z,92805.03
2022-09-10T08:40:01.536Z,92815.91
2022-09-10T08:42:50.127Z,92823.25
2022-09-10T08:45:32.834Z,92823.63
2022-09-10T08:48:16.324Z,92820.81
2022-09-10T08:51:09.823Z,92816.63
2022-09-10T08:53:43.750Z,92817.84
2022-09-10T08:56:31.215Z,92833.09
2022-09-10T08:59:03.176Z,92828.25
2022-09-10T09:01:36.464Z,92828.75
2022-09-10T09:04:13.008Z,92827.19
2022-09-10T09:06:50.267Z,92825.53
2022-09-10T09:09:17.100Z,92820.78
2022-09-10T09:11:51.619Z,92824.16
2022-09-10T09:14:47.865Z,92837.47
2022-09-10T09:17:16.956Z,92834.59
2022-09-10T09:19:54.007Z,92826.31
2022-09-10T09:22:29.522Z,92832.59
2022-09-10T09:25:09.882Z,92832.94
2022-09-10T09:27:41.472Z,92829.97
2022-09-10T09:30:20.308Z,92838.66
2022-09-10T09:32:47.548Z,92838.56
2022-09-10T09:35:47.048Z,92840.31
2022-09-10T09:38:23.772Z,92839.88
2022-09-10T09:40:59.810Z,92842.19
2022-09-10T09:43:56.424Z,92848.31
2022-09-10T09:46:25.623Z,92849.56
2022-09-10T09:48:59.191Z,92835.56
2022-09-10T09:51:30.621Z,92847.97
2022-09-10T09:54:38.924Z,92832.25
2022-09-10T09:56:50.779Z,92841.22
2022-09-10T09:59:28.092Z,92837.56
2022-09-10T10:01:59.494Z,92843.81
2022-09-10T10:04:30.930Z,92841.44
2022-09-10T10:06:59.916Z,92834.28
2022-09-10T10:09:32.449Z,92834.59
2022-09-10T10:12:05.761Z,92828.47
2022-09-10T10:14:32.207Z,92830.34
2022-09-10T10:17:01.090Z,92827.78
2022-09-10T10:19:29.530Z,92827.50
2022-09-10T10:21:56.039Z,92815.16
2022-09-10T10:24:33.783Z,92820.81
2022-09-10T10:27:00.608Z,92826.19
2022-09-10T10:29:27.636Z,92824.28
2022-09-10T10:31:56.114Z,92822.72
2022-09-10T10:34:45.183Z,92823.41
2022-09-10T10:37:22.049Z,92828.00
2022-09-10T10:40:11.083Z,92833.56
2022-09-10T10:42:46.053Z,92836.09
2022-09-10T10:45:28.575Z,92834.22
2022-09-10T10:48:32.210Z,92838.44
2022-09-10T10:51:19.211Z,92831.50
2022-09-10T10:54:31.612Z,92837.47
2022-09-10T10:57:17.104Z,92847.00
2022-09-10T11:00:15.013Z,92838.66
2022-09-10T11:02:54.409Z,92838.75
2022-09-10T11:05:42.082Z,92845.81
2022-09-10T11:08:15.773Z,92840.97
2022-09-10T11:10:50.417Z,92836.75
2022-09-10T11:13:22.143Z,92833.25
2022-09-10T11:16:05.563Z,92835.38
2022-09-10T11:18:36.672Z,92837.50
2022-09-10T11:21:17.927Z,92827.66
2022-09-10T11:23:52.111Z,92834.44
2022-09-10T11:26:24.619Z,92842.44
2022-09-10T11:29:03.666Z,92840.78
2022-09-10T11:31:42.049Z,92846.25
2022-09-10T11:34:47.649Z,92840.97
2022-09-10T11:37:26.359Z,92847.69
2022-09-10T11:39:56.002Z,92839.81
2022-09-10T11:42:36.426Z,92841.19
2022-09-10T11:45:20.016Z,92839.00
2022-09-10T11:47:57.035Z,92835.28
2022-09-10T11:50:41.674Z,92834.75
2022-09-10T11:53:13.863Z,92836.41
2022-09-10T11:55:52.081Z,92845.84
2022-09-10T11:58:38.332Z,92834.16
2022-09-10T12:01:27.790Z,92833.59
2022-09-10T12:04:17.144Z,92846.25
2022-09-10T12:06:57.489Z,92843.25
2022-09-10T12:09:29.156Z,92836.91
2022-09-10T12:12:10.855Z,92853.78
2022-09-10T12:14:39.532Z,92844.66
2022-09-10T12:17:23.846Z,92844.50
2022-09-10T12:19:54.745Z,92845.22
2022-09-10T12:22:31.264Z,92831.78
2022-09-10T12:25:08.529Z,92834.06
2022-09-10T12:27:48.991Z,92825.34
2022-09-10T12:30:33.634Z,92829.25
2022-09-10T12:33:07.398Z,92816.72
2022-09-10T12:35:35.287Z,92824.31
2022-09-10T12:38:39.912Z,92833.13
2022-09-10T12:41:14.712Z,92815.22
2022-09-10T12:43:41.216Z,92826.91
2022-09-10T12:46:12.555Z,92819.09
2022-09-10T12:48:45.511Z,92809.84
2022-09-10T12:51:18.012Z,92819.44
2022-09-10T12:53:47.395Z,92811.06
2022-09-10T12:56:36.917Z,92821.25
2022-09-10T12:59:35.365Z,92807.53
2022-09-10T13:02:02.731Z,92810.19
2022-09-10T13:04:34.660Z,92807.19
2022-09-10T13:07:19.395Z,92807.44
2022-09-10T13:09:47.294Z,92798.78
2022-09-10T13:12:20.451Z,92810.91
2022-09-10T13:14:53.685Z,92804.22
2022-09-10T13:17:49.515Z,92812.53
2022-09-10T13:20:22.005Z,92796.44
2022-09-10T13:23:10.007Z,92800.69
2022-09-10T13:25:42.657Z,92803.78
2022-09-10T13:28:30.716Z,92801.84
2022-09-10T13:31:11.869Z,92799.88
2022-09-10T13:33:51.223Z,92806.47
2022-09-10T13:36:44.201Z,92793.16
2022-09-10T13:39:42.518Z,92803.19
2022-09-10T13:42:46.383Z,92785.66
2022-09-10T13:45:19.743Z,92794.94
2022-09-10T13:47:53.877Z,92781.69
2022-09-10T13:50:27.094Z,92781.63
2022-09-10T13:52:57.703Z,92789.94
2022-09-10T13:55:27.830Z,92780.06
2022-09-10T13:57:59.166Z,92800.72
2022-09-10T14:00:32.066Z,92780.97
2022-09-10T14:03:00.561Z,92784.91
2022-09-10T14:05:39.801Z,92786.84
2022-09-10T14:08:12.163Z,92789.13
2022-09-10T14:10:49.616Z,92786.34
2022-09-10T14:13:25.364Z,92797.56
2022-09-10T14:15:54.400Z,92790.28
2022-09-10T14:18:24.380Z,92777.25
2022-09-10T14:20:50.960Z,92779.53
2022-09-10T14:23:17.764Z,92794.22
2022-09-10T14:25:45.636Z,92772.41
2022-09-10T14:28:20.005Z,92783.53
2022-09-10T14:30:48.830Z,92777.47
2022-09-10T14:33:27.643Z,92778.69
2022-09-10T14:35:54.321Z,92786.59
2022-09-10T14:38:25.248Z,92779.41
2022-09-10T14:40:57.827Z,92776.56
2022-09-10T14:43:33.531Z,92783.91
2022-09-10T14:46:02.048Z,92781.09
2022-09-10T14:48:40.984Z,92782.41
2022-09-10T14:51:22.730Z,92777.63
2022-09-10T14:53:54.169Z,92778.28
2022-09-10T14:56:30.730Z,92767.59
2022-09-10T14:59:03.394Z,92772.25
2022-09-10T15:01:30.455Z,92774.94
2022-09-10T15:03:59.178Z,92772.16
2022-09-10T15:06:26.785Z,92779.72
2022-09-10T15:08:55.933Z,92781.53
2022-09-10T15:11:28.012Z,92775.84
2022-09-10T15:13:59.314Z,92783.88
2022-09-10T15:16:26.014Z,92793.16
2022-09-10T15:18:52.507Z,92775.44
2022-09-10T15:21:19.572Z,92779.34
2022-09-10T15:23:46.167Z,92778.00
2022-09-10T15:26:14.545Z,92785.41
2022-09-10T15:28:41.721Z,92780.88
2022-09-10T15:31:09.135Z,92792.03
2022-09-10T15:33:36.088Z,92797.91
2022-09-10T15:36:02.896Z,92790.03
2022-09-10T15:38:29.389Z,92781.34
2022-09-10T15:41:07.460Z,92777.22
2022-09-10T15:43:37.820Z,92785.47
2022-09-10T15:46:04.784Z,92786.88
2022-09-10T15:48:33.533Z,92800.66
2022-09-10T15:51:01.646Z,92797.81
2022-09-10T15:53:28.404Z,92789.31
2022-09-10T15:55:54.858Z,92804.94
2022-09-10T15:58:21.309Z,92804.34
2022-09-10T16:00:47.729Z,92790.81
2022-09-10T16:03:14.159Z,92796.06
2022-09-10T16:05:40.698Z,92800.09
2022-09-10T16:08:07.707Z,92790.22
2022-09-10T16:10:37.897Z,92789.06
2022-09-10T16:13:04.342Z,92789.97
2022-09-10T16:15:30.998Z,92794.53
2022-09-10T16:17:58.085Z,92806.63
2022-09-10T16:20:24.614Z,92798.31
2022-09-10T16:22:54.389Z,92813.03
2022-09-10T16:25:20.867Z,92809.50
2022-09-10T16:27:47.498Z,92817.59
2022-09-10T16:30:14.001Z,92820.84
2022-09-10T16:32:40.460Z,92810.81
2022-09-10T16:35:08.550Z,92824.22
2022-09-10T16:37:35.017Z,92827.56
2022-09-10T16:40:01.949Z,92822.41
2022-09-10T16:42:29.125Z,92828.16
2022-09-10T16:44:56.392Z,92831.47
2022-09-10T16:47:22.903Z,92819.78
2022-09-10T16:49:49.331Z,92817.41
2022-09-10T16:52:15.844Z,92817.53
2022-09-10T16:54:42.341Z,92827.63
2022-09-10T16:57:08.815Z,92819.94
2022-09-10T16:59:35.256Z,92820.84
2022-09-10T17:02:01.758Z,92821.59
2022-09-10T17:04:29.316Z,92822.22
2022-09-10T17:06:57.538Z,92823.44
2022-09-10T17:09:24.965Z,92818.69
2022-09-10T17:11:51.734Z,92815.09
2022-09-10T17:14:18.207Z,92820.53
2022-09-10T17:16:44.843Z,92811.66
2022-09-10T17:19:17.606Z,92824.44
2022-09-10T17:21:47.896Z,92816.50
2022-09-10T17:24:14.350Z,92818.41
2022-09-10T17:26:41.551Z,92816.03
2022-09-10T17:29:17.035Z,92821.28
2022-09-10T17:31:46.559Z,92816.50
2022-09-10T17:34:14.363Z,92818.69
2022-09-10T17:36:44.430Z,92825.44
2022-09-10T17:39:11.493Z,92825.09
2022-09-10T17:41:39.536Z,92822.72
2022-09-10T17:44:06.738Z,92829.28
2022-09-10T17:46:35.069Z,92836.13
2022-09-10T17:49:02.073Z,92831.91
2022-09-10T17:51:31.732Z,92827.88
2022-09-10T17:53:58.612Z,92834.66
2022-09-10T17:56:26.498Z,92829.16
2022-09-10T17:59:03.044Z,92854.50
2022-09-10T18:01:32.405Z,92842.91
2022-09-10T18:03:59.094Z,92844.53
2022-09-10T18:06:28.815Z,92850.34
2022-09-10T18:08:59.036Z,92850.91
2022-09-10T18:11:27.238Z,92857.09
2022-09-10T18:13:55.438Z,92860.34
2022-09-10T18:16:24.349Z,92856.06
2022-09-10T18:18:59.949Z,92857.31
2022-09-10T18:21:34.257Z,92858.88
2022-09-10T18:24:05.049Z,92864.84
2022-09-10T18:26:34.588Z,92864.75
2022-09-10T18:29:04.851Z,92864.28
2022-09-10T18:31:43.939Z,92861.47
2022-09-10T18:34:13.644Z,92866.50
2022-09-10T18:36:40.139Z,92873.22
2022-09-10T18:39:10.649Z,92877.50
2022-09-10T18:41:39.077Z,92878.59
2022-09-10T18:44:08.005Z,92886.97
2022-09-10T18:46:35.575Z,92885.88
2022-09-10T18:49:03.282Z,92891.75
2022-09-10T18:51:30.491Z,92891.69
2022-09-10T18:54:01.527Z,92896.78
2022-09-10T18:56:31.106Z,92904.44
2022-09-10T18:59:11.298Z,92902.63
2022-09-10T19:01:40.648Z,92904.91
2022-09-10T19:04:09.235Z,92909.63
2022-09-10T19:06:38.359Z,92918.72
2022-09-10T19:09:08.194Z,92915.25
2022-09-10T19:11:40.453Z,92915.91
2022-09-10T19:14:14.345Z,92917.88
2022-09-10T19:16:43.448Z,92917.50
2022-09-10T19:19:22.108Z,92919.06
2022-09-10T19:21:51.154Z,92914.16
2022-09-10T19:24:25.333Z,92909.50
2022-09-10T19:27:00.299Z,92911.63
2022-09-10T19:29:26.922Z,92913.81
2022-09-10T19:31:53.383Z,92906.94
2022-09-10T19:34:21.417Z,92900.63
2022-09-10T19:36:48.006Z,92914.28
2022-09-10T19:39:16.908Z,92915.72
2022-09-10T19:41:45.389Z,92903.31
2022-09-10T19:44:13.507Z,92907.53
2022-09-10T19:46:41.088Z,92905.91
2022-09-10T19:49:10.095Z,92909.22
2022-09-10T19:51:37.958Z,92900.19
2022-09-10T19:54:06.583Z,92903.56
2022-09-10T19:56:39.820Z,92912.06
2022-09-10T19:59:08.628Z,92899.56
2022-09-10T20:01:41.006Z,92902.97
2022-09-10T20:04:10.343Z,92907.16
2022-09-10T20:06:37.723Z,92905.03
2022-09-10T20:09:06.632Z,92913.03
2022-09-10T20:11:35.027Z,92913.53
2022-09-10T20:14:08.587Z,92916.81
2022-09-10T20:16:37.228Z,92910.50
2022-09-10T20:19:05.199Z,92918.91
2022-09-10T20:21:31.775Z,92909.75
2022-09-10T20:23:58.670Z,92912.00
2022-09-10T20:26:28.037Z,92924.28
2022-09-10T20:28:57.881Z,92925.72
2022-09-10T20:31:27.043Z,92919.72
2022-09-10T20:34:03.369Z,92911.25
2022-09-10T20:36:34.334Z,92915.91
2022-09-10T20:39:00.871Z,92916.66
2022-09-10T20:41:30.238Z,92905.28
2022-09-10T20:43:58.687Z,92914.16
2022-09-10T20:46:27.291Z,92915.28
2022-09-10T20:48:54.942Z,92912.75
2022-09-10T20:51:21.469Z,92912.19
2022-09-10T20:53:48.562Z,92911.13
2022-09-10T20:56:19.243Z,92909.00
2022-09-10T20:58:46.876Z,92913.47
2022-09-10T21:01:14.506Z,92912.97
2022-09-10T21:03:41.206Z,92914.28
2022-09-10T21:06:09.319Z,92914.84
2022-09-10T21:08:37.121Z,92913.03
2022-09-10T21:11:05.464Z,92920.13
2022-09-10T21:13:33.806Z,92920.19
2022-09-10T21:16:12.691Z,92919.72
2022-09-10T21:18:43.357Z,92916.53
2022-09-10T21:21:16.106Z,92919.22
2022-09-10T21:23:47.836Z,92919.78
2022-09-10T21:26:16.273Z,92922.94
2022-09-10T21:28:44.698Z,92916.34
2022-09-10T21:31:14.858Z,92919.72
2022-09-10T21:33:42.655Z,92921.31
2022-09-10T21:36:14.816Z,92922.91
2022-09-10T21:38:41.771Z,92925.56
2022-09-10T21:41:15.314Z,92923.19
2022-09-10T21:43:43.946Z,92929.28
2022-09-10T21:46:12.177Z,92931.09
2022-09-10T21:48:39.982Z,92932.44
2022-09-10T21:51:11.608Z,92934.31
2022-09-10T21:53:38.069Z,92938.31
2022-09-10T21:56:04.816Z,92935.41
2022-09-10T21:58:33.528Z,92936.44
2022-09-10T22:01:00.424Z,92931.91
2022-09-10T22:03:31.672Z,92939.81
2022-09-10T22:06:18.411Z,92937.97
2022-09-10T22:08:48.794Z,92938.81
2022-09-10T22:11:18.941Z,92929.88
2022-09-10T22:13:51.436Z,92944.38
2022-09-10T22:16:18.469Z,92936.19
2022-09-10T22:18:45.306Z,92944.38
2022-09-10T22:21:11.880Z,92945.44
2022-09-10T22:23:39.053Z,92950.19
2022-09-10T22:26:14.412Z,92947.28
2022-09-10T22:28:41.345Z,92949.38
2022-09-10T22:31:12.091Z,92951.50
2022-09-10T22:33:40.581Z,92957.03
2022-09-10T22:36:15.917Z,92953.88
2022-09-10T22:38:42.958Z,92949.94
2022-09-10T22:41:10.295Z,92952.06
2022-09-10T22:43:38.479Z,92956.28
2022-09-10T22:46:06.960Z,92954.22
2022-09-10T22:48:35.405Z,92945.78
2022-09-10T22:51:02.232Z,92950.84
2022-09-10T22:53:28.895Z,92957.22
2022-09-10T22:55:55.371Z,92958.53
2022-09-10T22:58:21.805Z,92950.16
2022-09-10T23:00:48.321Z,92967.84
2022-09-10T23:03:15.072Z,92960.19
2022-09-10T23:05:41.644Z,92958.06
2022-09-10T23:08:08.126Z,92958.31
2022-09-10T23:10:34.626Z,92964.09
2022-09-10T23:13:01.246Z,92960.19
2022-09-10T23:15:31.395Z,92957.53
2022-09-10T23:17:59.327Z,92965.47
2022-09-10T23:20:28.856Z,92965.72
2022-09-10T23:22:55.294Z,92976.00
2022-09-10T23:25:21.812Z,92960.72
2022-09-10T23:27:51.098Z,92959.13
2022-09-10T23:30:17.880Z,92965.97
2022-09-10T23:32:45.090Z,92963.34
2022-09-10T23:35:11.546Z,92964.91
2022-09-10T23:37:38.324Z,92962.78
2022-09-10T23:40:05.524Z,92959.09
2022-09-10T23:42:32.948Z,92959.09
2022-09-10T23:44:59.401Z,92964.88
2022-09-10T23:47:26.995Z,92971.75
2022-09-10T23:49:53.466Z,92969.91
2022-09-10T23:52:20.490Z,92975.47
2022-09-10T23:54:47.347Z,92980.72
2022-09-10T23:57:13.915Z,92973.88
2022-09-10T23:59:40.963Z,92971.75
